Time;durP1;ratioP1;P1;durP2;ratioP2;P2;SDS_P1;SDS_P2;PMS_P1;PMS_P2;Temp;Humidity;BMP_temperature;BMP_pressure;BME280_temperature;BME280_humidity;BME280_pressure;Samples;Min_cycle;Max_cycle;Signal;HPM_P1;HPM_P2
2022/02/14 00:01:03;;;;;;;6.80;5.28;;;3.50;77.00;;;;;;5105869;28;20190;-87
2022/02/14 00:03:30;;;;;;;5.97;4.80;;;3.50;76.90;;;;;;5096131;28;20282;-87
2022/02/14 00:05:59;;;;;;;7.45;5.35;;;3.40;87.80;;;;;;5091744;28;20310;-87
2022/02/14 00:08:26;;;;;;;6.40;5.05;;;3.50;88.20;;;;;;5106468;28;20194;-88
2022/02/14 00:10:53;;;;;;;4.78;4.25;;;3.30;78.90;;;;;;5094176;28;20240;-86
2022/02/14 00:13:20;;;;;;;6.18;5.50;;;3.80;87.80;;;;;;5111334;28;20194;-87
2022/02/14 00:15:50;;;;;;;4.80;4.40;;;3.60;86.70;;;;;;5103327;28;20194;-87
2022/02/14 00:18:17;;;;;;;5.30;4.80;;;3.70;76.00;;;;;;5101741;28;20214;-87
2022/02/14 00:20:44;;;;;;;6.50;4.90;;;3.30;82.20;;;;;;5094837;28;20186;-87
2022/02/14 00:23:12;;;;;;;5.18;4.45;;;3.60;75.70;;;;;;5092966;27;20574;-87
2022/02/14 00:25:40;;;;;;;4.93;4.40;;;3.60;75.50;;;;;;5090937;28;20210;-87
2022/02/14 00:28:06;;;;;;;6.30;4.65;;;3.70;79.60;;;;;;5091116;28;20656;-87
2022/02/14 00:30:33;;;;;;;6.20;5.25;;;3.70;75.40;;;;;;5100953;28;20721;-87
2022/02/14 00:33:00;;;;;;;5.53;4.85;;;3.70;75.20;;;;;;5110480;28;20676;-87
2022/02/14 00:35:27;;;;;;;7.93;4.72;;;4.10;80.30;;;;;;5096478;28;20462;-88
2022/02/14 00:37:54;;;;;;;8.15;4.90;;;3.80;75.00;;;;;;5094446;28;20241;-87
2022/02/14 00:40:23;;;;;;;5.35;4.53;;;3.90;74.90;;;;;;5104199;27;20580;-87
2022/02/14 00:42:50;;;;;;;6.78;4.78;;;3.80;75.20;;;;;;5107610;28;20580;-87
2022/02/14 00:45:17;;;;;;;4.78;4.05;;;4.10;80.00;;;;;;5107354;28;20186;-87
2022/02/14 00:47:44;;;;;;;7.22;4.75;;;3.80;75.50;;;;;;5110078;28;20656;-88
2022/02/14 00:50:11;;;;;;;6.95;5.75;;;3.90;75.30;;;;;;5109105;28;20182;-87
2022/02/14 00:52:39;;;;;;;6.90;5.15;;;6.10;77.90;;;;;;5102739;28;20203;-88
2022/02/14 00:55:08;;;;;;;8.55;5.10;;;4.60;76.20;;;;;;5096018;28;20193;-87
2022/02/14 00:57:36;;;;;;;4.40;4.00;;;4.00;84.50;;;;;;5108571;28;20271;-87
2022/02/14 01:00:06;;;;;;;4.88;3.95;;;3.90;73.60;;;;;;5090762;28;20190;-87
2022/02/14 01:02:33;;;;;;;8.00;4.95;;;3.60;85.30;;;;;;5092297;28;20248;-87
2022/02/14 01:05:00;;;;;;;4.85;3.70;;;4.00;73.70;;;;;;5109503;28;20194;-87
2022/02/14 01:07:27;;;;;;;6.85;4.70;;;4.00;73.90;;;;;;5100625;28;20210;-87
2022/02/14 01:09:55;;;;;;;6.47;5.10;;;4.00;73.50;;;;;;5095010;28;20232;-87
2022/02/14 01:12:26;;;;;;;6.25;4.13;;;4.00;73.50;;;;;;5108530;28;20259;-87
2022/02/14 01:14:55;;;;;;;6.03;4.40;;;4.20;83.50;;;;;;5091912;28;20187;-87
2022/02/14 01:17:23;;;;;;;6.28;4.72;;;4.00;73.10;;;;;;5083796;28;20230;-87
2022/02/14 01:19:51;;;;;;;4.07;3.67;;;4.10;85.30;;;;;;5093466;28;20190;-87
2022/02/14 01:22:19;;;;;;;4.55;3.38;;;4.00;73.30;;;;;;5090317;28;20704;-87
2022/02/14 01:24:47;;;;;;;5.50;4.70;;;4.00;73.10;;;;;;5095038;28;20197;-87
2022/02/14 01:27:16;;;;;;;5.20;4.10;;;4.10;76.20;;;;;;5108004;28;20190;-87
2022/02/14 01:29:44;;;;;;;4.97;4.28;;;4.10;72.70;;;;;;5102790;28;20194;-87
2022/02/14 01:32:13;;;;;;;4.30;3.60;;;4.10;72.70;;;;;;5090329;28;20213;-87
2022/02/14 01:34:40;;;;;;;7.68;4.75;;;4.20;72.40;;;;;;5088151;28;20252;-87
2022/02/14 01:37:07;;;;;;;3.38;3.13;;;4.20;72.30;;;;;;5089304;28;20194;-87
2022/02/14 01:39:34;;;;;;;4.05;3.65;;;4.10;74.40;;;;;;5085754;28;20226;-87
2022/02/14 01:42:01;;;;;;;4.50;3.60;;;4.10;80.90;;;;;;5088041;28;20198;-87
2022/02/14 01:44:36;;;;;;;3.90;3.50;;;4.40;74.80;;;;;;5069122;28;20265;-87
2022/02/14 01:47:05;;;;;;;4.22;3.50;;;4.30;77.80;;;;;;5088925;28;20209;-86
2022/02/14 01:49:33;;;;;;;4.07;3.33;;;4.10;71.10;;;;;;5068893;28;20221;-86
2022/02/14 01:52:00;;;;;;;4.60;3.05;;;4.10;70.70;;;;;;5068357;28;20734;-87
2022/02/14 01:54:27;;;;;;;5.00;3.80;;;4.20;84.20;;;;;;5067205;28;20191;-87
2022/02/14 01:56:54;;;;;;;3.90;3.28;;;4.00;81.80;;;;;;5067692;28;20198;-87
2022/02/14 01:59:21;;;;;;;4.45;3.75;;;4.20;71.30;;;;;;5068185;28;20223;-87
2022/02/14 02:01:48;;;;;;;4.35;3.03;;;3.90;71.40;;;;;;5069120;28;20187;-87
2022/02/14 02:04:15;;;;;;;5.43;4.00;;;4.60;71.80;;;;;;5070135;28;20206;-87
2022/02/14 02:06:44;;;;;;;3.63;3.30;;;6.10;73.50;;;;;;5069239;28;20199;-87
2022/02/14 02:09:12;;;;;;;4.15;3.60;;;4.20;82.30;;;;;;5069372;28;20195;-87
2022/02/14 02:14:26;;;;;;;3.80;3.33;;;4.20;79.90;;;;;;5082311;28;20206;-87
2022/02/14 02:16:53;;;;;;;4.05;3.40;;;4.40;73.60;;;;;;5076556;28;20179;-87
2022/02/14 02:19:21;;;;;;;3.30;3.00;;;4.50;80.50;;;;;;5072942;28;20357;-87
2022/02/14 02:21:51;;;;;;;4.90;3.28;;;4.20;68.80;;;;;;5076913;28;20286;-87
2022/02/14 02:24:20;;;;;;;3.63;3.13;;;4.30;68.70;;;;;;5108070;28;20186;-86
2022/02/14 02:26:56;;;;;;;3.38;2.88;;;4.30;71.50;;;;;;5102577;28;20209;-86
2022/02/14 02:29:24;;;;;;;3.15;2.70;;;4.30;80.00;;;;;;5110350;28;20195;-86
2022/02/14 02:31:52;;;;;;;5.32;3.53;;;4.30;68.40;;;;;;5113322;28;20223;-87
2022/02/14 02:34:20;;;;;;;3.03;2.70;;;4.40;67.80;;;;;;5093964;28;20234;-87
2022/02/14 02:36:48;;;;;;;3.53;2.80;;;4.90;78.10;;;;;;5104627;28;20248;-87
2022/02/14 02:39:16;;;;;;;2.83;2.63;;;4.30;78.60;;;;;;5097304;28;20222;-86
2022/02/14 02:41:43;;;;;;;3.88;3.15;;;4.40;67.70;;;;;;5099543;28;20250;-86
2022/02/14 02:44:12;;;;;;;2.92;2.60;;;4.50;71.60;;;;;;5107513;28;20195;-87
2022/02/14 02:46:39;;;;;;;3.67;2.85;;;3.70;75.00;;;;;;5101945;28;20711;-87
2022/02/14 02:49:11;;;;;;;4.57;2.47;;;4.50;77.20;;;;;;5111649;28;20194;-87
2022/02/14 02:51:39;;;;;;;3.65;2.60;;;4.50;66.70;;;;;;5093783;28;20638;-87
2022/02/14 02:54:06;;;;;;;4.32;2.40;;;4.50;66.50;;;;;;5094181;28;20255;-87
2022/02/14 02:56:33;;;;;;;2.97;2.75;;;4.50;67.00;;;;;;5099644;28;20740;-86
2022/02/14 02:59:00;;;;;;;3.40;2.70;;;4.50;75.30;;;;;;5092744;28;20260;-87
2022/02/14 03:01:29;;;;;;;4.68;3.33;;;4.50;66.10;;;;;;5111375;28;20578;-87
2022/02/14 03:03:56;;;;;;;3.65;3.10;;;4.80;66.10;;;;;;5108901;28;20187;-87
2022/02/14 03:06:24;;;;;;;5.68;3.25;;;4.30;66.10;;;;;;5105351;28;20218;-86
2022/02/14 03:08:51;;;;;;;3.80;2.58;;;4.30;66.30;;;;;;5096325;28;20657;-87
2022/02/14 03:11:18;;;;;;;4.30;2.40;;;4.30;66.00;;;;;;5100757;28;20196;-87
2022/02/14 03:13:45;;;;;;;3.78;3.17;;;4.20;66.40;;;;;;5112385;28;20194;-86
2022/02/14 03:16:13;;;;;;;4.22;2.80;;;5.00;67.00;;;;;;5104149;28;20194;-87
2022/02/14 03:18:42;;;;;;;2.55;2.30;;;4.20;65.80;;;;;;5112630;28;20299;-87
2022/02/14 03:21:09;;;;;;;3.58;2.78;;;6.70;68.80;;;;;;5096896;28;20195;-87
2022/02/14 03:23:37;;;;;;;3.03;2.60;;;4.20;66.40;;;;;;5101057;28;20190;-86
2022/02/14 03:26:05;;;;;;;3.22;2.33;;;4.70;69.80;;;;;;5094585;28;20681;-87
2022/02/14 03:28:32;;;;;;;2.90;2.60;;;4.20;65.70;;;;;;5094646;28;20202;-87
2022/02/14 03:30:59;;;;;;;2.60;2.40;;;4.30;75.20;;;;;;5093751;28;20210;-87
2022/02/14 03:33:26;;;;;;;4.15;2.55;;;4.10;64.70;;;;;;5111743;27;20213;-87
2022/02/14 03:35:55;;;;;;;2.15;2.05;;;4.10;64.50;;;;;;5108101;28;20613;-87
2022/02/14 03:38:22;;;;;;;3.92;2.83;;;4.10;64.50;;;;;;5112887;27;20371;-87
2022/02/14 03:40:49;;;;;;;3.40;3.10;;;4.00;75.10;;;;;;5101704;28;20198;-87
2022/02/14 03:43:16;;;;;;;2.35;1.92;;;4.10;64.20;;;;;;5085317;28;20261;-87
2022/02/14 03:45:44;;;;;;;3.38;2.70;;;4.10;63.70;;;;;;5082830;28;20214;-87
2022/02/14 03:48:11;;;;;;;6.80;3.22;;;;;;;;;;5109017;28;20201;-87
2022/02/14 03:50:39;;;;;;;4.18;3.40;;;4.10;63.20;;;;;;5102118;28;20210;-87
2022/02/14 03:53:07;;;;;;;4.65;3.47;;;4.00;63.60;;;;;;5106278;28;20280;-86
2022/02/14 03:55:34;;;;;;;4.13;2.67;;;4.70;65.00;;;;;;5111049;28;20201;-87
2022/02/14 03:58:02;;;;;;;3.83;3.05;;;4.00;64.30;;;;;;5112909;28;20297;-87
2022/02/14 04:00:29;;;;;;;4.28;2.70;;;4.00;64.70;;;;;;5098251;28;20191;-86
2022/02/14 04:02:56;;;;;;;4.05;2.30;;;3.90;64.70;;;;;;5089433;28;20228;-87
2022/02/14 04:05:23;;;;;;;3.75;2.78;;;3.90;66.10;;;;;;5103748;28;20225;-87
2022/02/14 04:07:51;;;;;;;4.53;2.85;;;3.90;68.50;;;;;;5103637;28;20665;-87
2022/02/14 04:10:20;;;;;;;2.97;2.30;;;3.80;65.10;;;;;;5094203;28;20712;-87
2022/02/14 04:12:46;;;;;;;3.55;3.00;;;3.90;66.70;;;;;;5110794;28;20194;-87
2022/02/14 04:15:13;;;;;;;3.67;2.40;;;3.90;75.20;;;;;;5106756;28;20219;-87
2022/02/14 04:17:42;;;;;;;3.00;2.80;;;3.90;64.70;;;;;;5093703;28;20298;-87
2022/02/14 04:20:10;;;;;;;2.45;1.90;;;3.80;66.10;;;;;;5107548;28;20223;-87
2022/02/14 04:22:37;;;;;;;2.58;2.03;;;3.80;63.50;;;;;;5104079;28;20194;-86
2022/02/14 04:25:04;;;;;;;2.47;2.25;;;3.80;63.40;;;;;;5102822;28;20202;-87
2022/02/14 04:27:33;;;;;;;2.45;2.25;;;3.90;63.00;;;;;;5093017;28;20244;-87
2022/02/14 04:29:59;;;;;;;2.30;2.10;;;3.90;66.30;;;;;;5095160;28;20187;-87
2022/02/14 04:32:27;;;;;;;2.25;2.05;;;4.40;64.00;;;;;;5098560;28;20194;-87
2022/02/14 04:34:54;;;;;;;2.75;2.35;;;3.90;66.30;;;;;;5109778;28;20193;-87
2022/02/14 04:37:21;;;;;;;3.97;2.60;;;3.80;63.80;;;;;;5101025;27;20195;-87
2022/02/14 04:39:47;;;;;;;4.05;2.65;;;3.90;65.50;;;;;;5093594;28;20221;-87
2022/02/14 04:42:14;;;;;;;2.10;1.90;;;4.20;63.60;;;;;;5104958;28;20364;-87
2022/02/14 04:44:43;;;;;;;6.35;2.42;;;3.90;62.90;;;;;;5102825;28;20229;-87
2022/02/14 04:47:10;;;;;;;3.83;1.98;;;;;;;;;;5111057;28;20251;-86
2022/02/14 04:49:37;;;;;;;4.13;2.38;;;3.80;70.90;;;;;;5111089;28;20202;-87
2022/02/14 04:52:06;;;;;;;4.45;2.20;;;3.90;70.70;;;;;;5094518;28;20191;-87
2022/02/14 04:54:33;;;;;;;2.88;2.22;;;3.90;62.20;;;;;;5098133;28;20204;-87
2022/02/14 04:57:00;;;;;;;3.55;2.42;;;3.80;71.30;;;;;;5093186;28;20242;-88
2022/02/14 04:59:27;;;;;;;4.85;2.53;;;3.90;61.50;;;;;;5103974;28;20218;-87
2022/02/14 05:01:55;;;;;;;2.20;2.00;;;4.00;64.90;;;;;;5099331;28;20217;-87
2022/02/14 05:04:22;;;;;;;6.90;1.95;;;3.90;61.40;;;;;;5090084;28;20206;-87
2022/02/14 05:06:49;;;;;;;2.33;1.77;;;3.90;64.10;;;;;;5100172;28;20194;-87
2022/02/14 05:09:16;;;;;;;4.63;2.15;;;3.80;61.00;;;;;;5093527;28;20684;-87
2022/02/14 05:11:43;;;;;;;2.15;1.98;;;3.90;60.90;;;;;;5099541;28;20222;-87
2022/02/14 05:14:10;;;;;;;2.10;1.90;;;3.90;62.10;;;;;;5109636;28;20198;-87
2022/02/14 05:16:37;;;;;;;4.00;2.47;;;4.20;62.60;;;;;;5097434;28;20198;-87
2022/02/14 05:19:06;;;;;;;2.50;2.22;;;4.40;63.10;;;;;;5101183;28;20450;-87
2022/02/14 05:21:33;;;;;;;1.90;1.80;;;3.90;62.70;;;;;;5100005;28;20205;-87
2022/02/14 05:24:00;;;;;;;2.42;2.10;;;3.90;62.10;;;;;;5088994;28;20201;-87
2022/02/14 05:26:27;;;;;;;3.95;2.25;;;3.80;62.30;;;;;;5091059;28;20198;-87
2022/02/14 05:28:55;;;;;;;3.13;2.42;;;3.70;64.40;;;;;;5105211;28;20214;-87
2022/02/14 05:31:22;;;;;;;4.05;2.53;;;3.80;61.10;;;;;;5108978;28;20198;-87
2022/02/14 05:33:49;;;;;;;2.20;2.00;;;3.70;71.60;;;;;;5109807;28;20677;-87
2022/02/14 05:36:19;;;;;;;2.30;2.10;;;3.80;63.70;;;;;;5109555;28;20634;-84
2022/02/14 05:38:46;;;;;;;4.28;2.17;;;3.80;61.90;;;;;;5106931;28;20194;-83
2022/02/14 05:41:13;;;;;;;3.08;1.83;;;3.50;72.90;;;;;;5091777;28;20199;-83
2022/02/14 05:43:40;;;;;;;1.95;1.85;;;3.60;72.40;;;;;;5106969;28;20276;-84
2022/02/14 05:46:13;;;;;;;2.30;2.08;;;3.70;63.00;;;;;;5101048;28;20248;-84
2022/02/14 05:48:40;;;;;;;4.15;2.33;;;3.80;63.30;;;;;;5088510;28;20195;-84
2022/02/14 05:51:08;;;;;;;2.97;2.05;;;3.70;63.50;;;;;;5088038;28;20285;-84
2022/02/14 05:53:37;;;;;;;2.30;2.10;;;3.70;63.00;;;;;;5089473;28;20199;-84
2022/02/14 05:56:04;;;;;;;4.65;2.72;;;3.70;62.20;;;;;;5099141;28;20191;-83
2022/02/14 05:58:31;;;;;;;1.42;1.33;;;3.70;74.40;;;;;;5088544;28;20285;-84
2022/02/14 06:00:58;;;;;;;1.95;1.85;;;;;;;;;;5105871;28;20295;-83
2022/02/14 06:03:25;;;;;;;6.13;2.40;;;3.60;73.70;;;;;;5093005;28;20627;-83
2022/02/14 06:05:52;;;;;;;5.55;3.13;;;3.60;63.90;;;;;;5087120;28;20601;-84
2022/02/14 06:08:19;;;;;;;5.93;2.92;;;3.60;63.80;;;;;;5081541;28;20288;-83
2022/02/14 06:10:49;;;;;;;2.85;2.65;;;3.60;63.40;;;;;;5091850;28;20654;-84
2022/02/14 06:13:16;;;;;;;4.13;3.28;;;3.70;63.70;;;;;;5107772;28;20197;-84
2022/02/14 06:15:43;;;;;;;2.72;2.53;;;3.60;63.80;;;;;;5090994;28;20282;-83
2022/02/14 06:18:10;;;;;;;4.03;2.42;;;3.60;65.50;;;;;;5085837;28;20197;-84
2022/02/14 06:20:37;;;;;;;3.72;2.97;;;3.60;64.90;;;;;;5090560;28;20238;-83
2022/02/14 06:23:04;;;;;;;5.40;2.92;;;3.60;64.80;;;;;;5094666;28;20910;-85
2022/02/14 06:25:31;;;;;;;7.38;2.78;;;3.40;76.20;;;;;;5097232;28;20190;-84
2022/02/14 06:28:00;;;;;;;3.25;2.75;;;3.50;64.90;;;;;;5089138;28;20233;-84
2022/02/14 06:30:27;;;;;;;9.10;3.38;;;3.60;64.40;;;;;;5087805;28;20202;-84
2022/02/14 06:32:54;;;;;;;3.72;2.60;;;3.50;64.60;;;;;;5100058;28;20207;-84
2022/02/14 06:35:22;;;;;;;4.10;2.50;;;3.60;64.20;;;;;;5087878;28;20197;-84
2022/02/14 06:37:49;;;;;;;4.10;3.10;;;3.30;74.10;;;;;;5102591;28;20275;-82
2022/02/14 06:40:17;;;;;;;4.43;2.85;;;3.50;64.40;;;;;;5095649;28;20218;-83
2022/02/14 06:42:47;;;;;;;2.95;2.40;;;3.60;64.80;;;;;;5071576;28;20206;-84
2022/02/14 06:45:16;;;;;;;10.57;5.63;;;3.50;74.40;;;;;;5091441;28;20203;-84
2022/02/14 06:47:43;;;;;;;7.70;3.10;;;3.50;63.80;;;;;;5088391;28;20226;-84
2022/02/14 06:50:11;;;;;;;4.40;3.08;;;4.30;69.60;;;;;;5088172;28;20201;-84
2022/02/14 06:52:39;;;;;;;6.13;3.53;;;3.50;64.60;;;;;;5089037;28;20194;-84
2022/02/14 06:55:07;;;;;;;4.85;3.05;;;3.50;65.20;;;;;;5108104;28;20194;-84
2022/02/14 06:57:34;;;;;;;5.03;2.90;;;3.50;65.00;;;;;;5103604;28;20270;-84
2022/02/14 07:00:01;;;;;;;6.13;3.03;;;3.80;76.90;;;;;;5089045;28;20210;-83
2022/02/14 07:02:30;;;;;;;7.93;4.05;;;3.50;65.40;;;;;;5087323;28;20534;-84
2022/02/14 07:04:57;;;;;;;11.77;2.95;;;3.50;77.70;;;;;;5089593;28;20202;-83
2022/02/14 07:07:25;;;;;;;4.53;2.85;;;3.40;66.20;;;;;;5092950;28;20574;-83
2022/02/14 07:09:51;;;;;;;3.47;2.90;;;3.60;75.10;;;;;;5092947;28;20213;-84
2022/02/14 07:12:18;;;;;;;4.35;2.58;;;3.70;69.20;;;;;;5093707;28;20282;-84
2022/02/14 07:14:45;;;;;;;5.50;3.28;;;3.50;66.20;;;;;;5077437;28;20233;-83
2022/02/14 07:17:13;;;;;;;3.10;2.70;;;3.60;65.80;;;;;;5101568;28;20221;-84
2022/02/14 07:19:41;;;;;;;6.47;3.10;;;2.90;75.90;;;;;;5112968;27;20248;-84
2022/02/14 07:22:08;;;;;;;4.88;3.00;;;3.50;66.40;;;;;;5104752;28;20252;-84
2022/02/14 07:24:35;;;;;;;3.20;2.85;;;3.60;66.00;;;;;;5112141;28;20209;-84
2022/02/14 07:27:02;;;;;;;2.63;2.42;;;3.60;77.40;;;;;;5104209;28;20213;-84
2022/02/14 07:29:29;;;;;;;7.95;3.28;;;3.60;67.50;;;;;;5108332;28;20198;-84
2022/02/14 07:31:56;;;;;;;4.30;3.13;;;3.40;79.60;;;;;;5086659;28;20199;-84
2022/02/14 07:34:23;;;;;;;3.13;2.40;;;3.50;68.70;;;;;;5089065;28;20207;-84
2022/02/14 07:36:51;;;;;;;6.00;2.70;;;3.50;69.70;;;;;;5091064;28;20732;-83
2022/02/14 07:39:18;;;;;;;4.47;2.40;;;3.70;81.60;;;;;;5107977;28;20741;-83
2022/02/14 07:41:45;;;;;;;5.78;3.42;;;3.60;70.40;;;;;;5103012;28;20204;-83
2022/02/14 07:44:12;;;;;;;3.78;2.75;;;3.80;70.00;;;;;;5095158;28;20263;-83
2022/02/14 07:46:39;;;;;;;7.30;4.22;;;4.00;77.70;;;;;;5089679;28;20202;-83
2022/02/14 07:49:06;;;;;;;3.67;3.38;;;4.10;67.70;;;;;;5104886;28;20205;-83
2022/02/14 07:51:33;;;;;;;5.15;3.13;;;4.30;68.40;;;;;;5091344;28;20255;-83
2022/02/14 07:54:01;;;;;;;10.82;2.83;;;4.30;65.60;;;;;;5097947;28;20256;-83
2022/02/14 07:56:28;;;;;;;11.63;2.92;;;4.40;65.60;;;;;;5090807;28;20206;-83
2022/02/14 07:58:58;;;;;;;7.63;2.92;;;4.70;67.20;;;;;;5094857;28;20226;-84
2022/02/14 08:01:25;;;;;;;10.32;3.25;;;4.50;65.10;;;;;;5104333;28;20226;-83
2022/02/14 08:03:52;;;;;;;6.47;3.15;;;4.70;65.90;;;;;;5090249;28;20680;-83
2022/02/14 08:06:18;;;;;;;9.98;3.30;;;4.70;65.80;;;;;;5099840;28;20280;-83
2022/02/14 08:08:45;;;;;;;4.32;3.00;;;5.10;74.60;;;;;;5105682;28;20199;-83
2022/02/14 08:11:14;;;;;;;6.47;2.80;;;5.10;64.50;;;;;;5090546;28;20263;-84
2022/02/14 08:13:41;;;;;;;5.28;3.50;;;5.20;64.70;;;;;;5092451;28;20194;-83
2022/02/14 08:16:07;;;;;;;4.75;2.42;;;5.30;65.40;;;;;;5110555;28;20748;-83
2022/02/14 08:18:36;;;;;;;3.70;3.15;;;5.40;75.00;;;;;;5107919;28;20403;-83
2022/02/14 08:21:03;;;;;;;3.30;3.00;;;5.40;65.00;;;;;;5098385;28;20558;-83
2022/02/14 08:23:30;;;;;;;7.32;3.35;;;5.50;65.30;;;;;;5094547;28;20252;-83
2022/02/14 08:25:57;;;;;;;4.80;2.72;;;6.00;74.80;;;;;;5073556;28;20661;-83
2022/02/14 08:28:26;;;;;;;5.05;3.22;;;6.00;72.90;;;;;;5095557;28;20877;-83
2022/02/14 08:30:53;;;;;;;7.13;4.30;;;5.90;65.40;;;;;;5091628;28;20257;-83
2022/02/14 08:33:20;;;;;;;7.38;2.72;;;6.00;64.00;;;;;;5099304;28;20656;-83
2022/02/14 08:35:47;;;;;;;5.35;3.08;;;6.10;64.20;;;;;;5108402;28;20304;-83
2022/02/14 08:38:14;;;;;;;6.88;3.22;;;6.20;64.20;;;;;;5100588;28;20199;-83
2022/02/14 08:40:49;;;;;;;3.92;2.80;;;6.30;65.50;;;;;;5089370;28;20730;-83
2022/02/14 08:43:16;;;;;;;3.05;2.50;;;6.40;63.90;;;;;;5090204;28;20543;-84
2022/02/14 08:45:45;;;;;;;3.20;2.53;;;6.60;64.00;;;;;;5088985;28;20672;-83
2022/02/14 08:48:11;;;;;;;3.45;2.53;;;6.70;63.00;;;;;;5090476;28;20206;-83
2022/02/14 08:50:40;;;;;;;8.95;3.22;;;6.80;63.10;;;;;;5102341;28;20239;-82
2022/02/14 08:53:07;;;;;;;3.63;3.03;;;7.00;63.60;;;;;;5094610;28;20582;-84
2022/02/14 08:55:35;;;;;;;4.72;2.75;;;7.00;61.60;;;;;;5089750;28;20286;-83
2022/02/14 08:58:02;;;;;;;3.72;2.63;;;7.00;62.70;;;;;;5089526;28;20210;-83
2022/02/14 09:00:28;;;;;;;3.85;2.72;;;7.00;63.10;;;;;;5089930;28;20275;-83
2022/02/14 09:02:57;;;;;;;5.32;2.50;;;7.80;72.90;;;;;;5091904;28;20225;-83
2022/02/14 09:05:26;;;;;;;4.63;2.40;;;7.30;63.50;;;;;;5109452;28;20678;-82
2022/02/14 09:07:53;;;;;;;7.40;3.08;;;7.50;71.10;;;;;;5094888;28;20718;-83
2022/02/14 09:10:20;;;;;;;3.33;2.75;;;7.70;62.00;;;;;;5089661;28;20222;-83
2022/02/14 09:12:47;;;;;;;3.97;2.30;;;7.90;64.10;;;;;;5099214;28;20194;-82
2022/02/14 09:15:15;;;;;;;5.80;2.67;;;8.00;62.50;;;;;;5088997;28;20262;-83
2022/02/14 09:17:42;;;;;;;3.10;2.80;;;8.20;62.70;;;;;;5096562;28;20760;-83
2022/02/14 09:20:11;;;;;;;2.63;2.50;;;8.70;71.20;;;;;;5088350;28;20792;-82
2022/02/14 09:22:38;;;;;;;4.87;3.00;;;8.80;66.30;;;;;;5098878;28;20645;-82
2022/02/14 09:25:08;;;;;;;5.37;2.77;;;9.00;60.70;;;;;;5109429;28;20623;-83
2022/02/14 09:27:35;;;;;;;7.40;2.63;;;9.30;60.20;;;;;;5103498;28;20684;-82
2022/02/14 09:30:03;;;;;;;4.63;2.70;;;9.40;59.90;;;;;;5109002;28;20602;-83
2022/02/14 09:32:30;;;;;;;4.87;2.57;;;9.40;60.70;;;;;;5106502;28;20634;-82
2022/02/14 09:34:57;;;;;;;3.97;2.50;;;9.50;59.90;;;;;;5108885;28;20625;-82
2022/02/14 09:37:25;;;;;;;3.47;2.70;;;9.50;59.40;;;;;;5090123;28;20658;-82
2022/02/14 09:39:52;;;;;;;5.47;3.40;;;9.50;60.20;;;;;;5088730;28;20715;-82
2022/02/14 09:42:20;;;;;;;3.77;2.60;;;9.50;60.30;;;;;;5093761;28;20623;-82
2022/02/14 09:44:47;;;;;;;9.03;3.17;;;9.60;59.70;;;;;;5108642;28;20731;-85
2022/02/14 09:47:14;;;;;;;7.47;3.17;;;10.00;69.40;;;;;;5107680;28;20635;-83
2022/02/14 09:49:42;;;;;;;5.30;2.40;;;9.90;61.40;;;;;;5109822;28;20702;-83
2022/02/14 09:52:12;;;;;;;5.80;2.43;;;10.00;59.30;;;;;;5107682;28;20624;-83
2022/02/14 09:54:40;;;;;;;5.57;3.30;;;10.20;58.70;;;;;;5108751;28;20638;-83
2022/02/14 09:57:07;;;;;;;9.37;2.80;;;10.00;67.10;;;;;;5098416;28;21042;-82
2022/02/14 09:59:34;;;;;;;5.03;2.87;;;10.10;59.00;;;;;;5105353;28;20990;-83
2022/02/14 10:02:19;;;;;;;3.57;2.40;;;10.20;59.80;;;;;;5099111;28;20668;-83
2022/02/14 10:05:04;;;;;;;4.13;3.80;;;10.50;68.50;;;;;;5087768;28;20623;-82
2022/02/14 10:07:41;;;;;;;3.37;2.60;;;10.20;59.80;;;;;;5088834;28;20612;-82
2022/02/14 10:10:12;;;;;;;3.93;2.93;;;10.30;59.90;;;;;;5088103;28;20608;-83
2022/02/14 10:12:43;;;;;;;2.70;2.33;;;10.30;60.70;;;;;;5101615;28;20626;-83
2022/02/14 10:15:11;;;;;;;6.33;3.00;;;10.30;61.20;;;;;;5108075;28;20623;-83
2022/02/14 10:17:39;;;;;;;4.43;2.90;;;10.10;68.60;;;;;;5103344;28;20680;-82
2022/02/14 10:20:07;;;;;;;5.70;2.90;;;10.30;61.90;;;;;;5108514;28;20721;-83
2022/02/14 10:22:50;;;;;;;2.83;2.63;;;10.90;70.80;;;;;;5097717;28;20962;-83
2022/02/14 10:25:31;;;;;;;4.93;3.33;;;10.50;63.20;;;;;;5107860;28;21154;-83
2022/02/14 10:28:15;;;;;;;8.87;2.87;;;10.70;62.30;;;;;;5096346;28;20656;-83
2022/02/14 10:31:00;;;;;;;3.20;2.50;;;11.10;71.80;;;;;;5108415;28;21084;-83
2022/02/14 10:33:49;;;;;;;2.50;2.10;;;10.80;64.00;;;;;;5083322;28;20751;-83
2022/02/14 10:36:29;;;;;;;3.77;3.43;;;10.90;63.40;;;;;;5088690;28;20662;-82
2022/02/14 10:38:57;;;;;;;5.87;2.43;;;10.90;63.40;;;;;;5104714;28;21000;-83
2022/02/14 10:41:28;;;;;;;4.90;2.53;;;10.90;63.70;;;;;;5107007;28;20644;-83
2022/02/14 10:44:05;;;;;;;4.37;2.40;;;10.90;66.00;;;;;;5091918;28;20618;-83
2022/02/14 10:46:32;;;;;;;3.57;2.30;;;11.00;63.50;;;;;;5108841;28;20616;-83
2022/02/14 10:49:02;;;;;;;2.80;2.30;;;11.10;64.30;;;;;;5093097;28;20678;-83
2022/02/14 10:51:29;;;;;;;4.20;2.83;;;;;;;;;;5095632;28;20719;-82
2022/02/14 10:53:58;;;;;;;3.13;2.43;;;11.10;64.20;;;;;;5091044;28;20616;-83
2022/02/14 10:56:27;;;;;;;3.10;2.10;;;11.20;64.60;;;;;;5110311;28;21028;-83
2022/02/14 10:59:12;;;;;;;2.93;2.60;;;11.30;64.60;;;;;;5112986;28;21052;-82
2022/02/14 11:01:40;;;;;;;3.83;2.20;;;11.40;65.50;;;;;;5109456;28;20665;-82
2022/02/14 11:04:08;;;;;;;3.70;2.43;;;11.50;64.50;;;;;;5096887;28;20624;-82
2022/02/14 11:06:37;;;;;;;3.43;2.40;;;11.60;64.90;;;;;;5111541;28;20627;-82
2022/02/14 11:09:05;;;;;;;3.20;2.35;;;11.80;75.10;;;;;;5099439;28;20781;-82
2022/02/14 11:11:37;;;;;;;3.03;2.00;;;11.70;65.50;;;;;;5093624;28;20206;-82
2022/02/14 11:14:05;;;;;;;6.57;2.50;;;11.60;65.80;;;;;;5111346;28;20627;-83
2022/02/14 11:16:36;;;;;;;4.23;2.60;;;11.70;66.40;;;;;;5109712;28;21193;-83
2022/02/14 11:19:05;;;;;;;3.03;2.50;;;11.80;65.60;;;;;;5103798;28;20638;-83
2022/02/14 11:21:33;;;;;;;12.40;2.50;;;11.80;66.10;;;;;;5110383;28;20690;-82
2022/02/14 11:24:12;;;;;;;3.20;1.83;;;11.80;67.20;;;;;;5089652;28;20649;-83
2022/02/14 11:26:49;;;;;;;2.80;2.60;;;11.50;73.80;;;;;;5092796;28;20620;-83
2022/02/14 11:29:27;;;;;;;3.70;1.90;;;11.70;67.90;;;;;;5091301;28;20643;-82
2022/02/14 11:32:15;;;;;;;1.73;1.53;;;11.70;68.10;;;;;;5093962;28;21180;-83
2022/02/14 11:35:00;;;;;;;1.97;1.40;;;11.80;68.30;;;;;;5084728;28;20659;-83
2022/02/14 11:37:54;;;;;;;2.47;1.60;;;11.90;68.20;;;;;;5108126;28;20638;-83
2022/02/14 11:40:36;;;;;;;2.13;1.70;;;11.80;68.40;;;;;;5096065;28;20619;-83
2022/02/14 11:43:22;;;;;;;1.67;1.57;;;11.80;69.10;;;;;;5105586;28;20688;-83
2022/02/14 11:46:18;;;;;;;2.40;1.60;;;11.40;68.80;;;;;;5101584;28;20627;-82
2022/02/14 11:48:51;;;;;;;4.43;2.13;;;11.80;69.20;;;;;;5083897;28;20633;-83
2022/02/14 11:51:23;;;;;;;1.63;1.53;;;11.80;69.70;;;;;;5091497;28;20604;-83
2022/02/14 11:53:51;;;;;;;4.37;2.07;;;11.80;69.30;;;;;;5103939;28;21192;-83
2022/02/14 11:56:26;;;;;;;7.30;2.03;;;11.80;69.50;;;;;;5109921;28;20612;-83
2022/02/14 11:59:12;;;;;;;2.60;1.83;;;11.90;69.30;;;;;;5071330;28;20625;-83
2022/02/14 12:02:01;;;;;;;3.20;1.80;;;11.90;69.80;;;;;;5079023;28;20704;-83
2022/02/14 12:04:48;;;;;;;1.90;1.80;;;11.90;69.00;;;;;;5083128;28;20620;-82
2022/02/14 12:07:31;;;;;;;8.13;2.07;;;11.90;69.20;;;;;;5099584;28;20623;-83
2022/02/14 12:10:19;;;;;;;7.40;1.90;;;11.80;69.40;;;;;;5111651;28;20662;-83
2022/02/14 12:13:07;;;;;;;4.37;1.67;;;11.80;70.30;;;;;;5108265;28;20632;-83
2022/02/14 12:21:21;;;;;;;2.30;2.00;;;11.70;70.70;;;;;;5092024;28;20671;-83
2022/02/14 12:23:50;;;;;;;3.73;1.73;;;12.20;79.60;;;;;;5080780;28;20620;-83
2022/02/14 12:26:19;;;;;;;3.33;1.60;;;11.90;71.90;;;;;;5083562;28;20625;-82
2022/02/14 12:29:31;;;;;;;3.27;2.10;;;12.00;70.90;;;;;;5066253;28;21126;-83
2022/02/14 12:31:42;;;;;;;3.07;2.30;;;11.90;78.00;;;;;;5079346;28;20668;-83
2022/02/14 12:34:09;;;;;;;2.20;1.40;;;11.20;77.40;;;;;;5088168;28;20628;-82
2022/02/14 12:36:36;;;;;;;4.90;1.70;;;11.60;71.70;;;;;;5090465;28;20635;-83
2022/02/14 12:39:03;;;;;;;2.03;1.57;;;11.70;72.90;;;;;;5089699;28;20625;-83
2022/02/14 12:41:30;;;;;;;1.40;1.30;;;11.60;73.00;;;;;;5090786;28;20718;-83
2022/02/14 12:43:58;;;;;;;5.57;1.90;;;11.80;73.40;;;;;;5105643;28;20669;-83
2022/02/14 12:46:25;;;;;;;2.70;1.60;;;11.80;74.60;;;;;;5110181;28;20655;-82
2022/02/14 12:48:57;;;;;;;1.87;1.50;;;11.80;73.20;;;;;;5106294;28;20620;-83
2022/02/14 12:51:26;;;;;;;4.33;1.70;;;11.90;73.00;;;;;;5110634;28;20632;-83
2022/02/14 12:53:54;;;;;;;3.23;2.00;;;12.00;73.00;;;;;;5105917;28;20622;-83
2022/02/14 12:56:23;;;;;;;5.30;2.17;;;11.90;72.50;;;;;;5098574;28;20625;-83
2022/02/14 12:58:52;;;;;;;2.60;1.90;;;12.00;73.80;;;;;;5089453;28;20605;-82
2022/02/14 13:01:19;;;;;;;3.30;1.87;;;12.40;73.80;;;;;;5096619;28;20692;-83
2022/02/14 13:03:56;;;;;;;1.63;1.40;;;12.10;79.60;;;;;;5090469;28;20686;-83
2022/02/14 13:06:36;;;;;;;2.33;1.33;;;12.30;76.10;;;;;;5091703;28;20616;-83
2022/02/14 13:09:18;;;;;;;2.97;1.73;;;11.80;72.80;;;;;;5110217;28;20651;-83
2022/02/14 13:11:46;;;;;;;1.93;1.50;;;;;;;;;;5105930;28;21154;-83
2022/02/14 13:14:29;;;;;;;3.50;2.27;;;11.70;72.70;;;;;;5090167;28;21270;-83